Time;durP1;ratioP1;P1;durP2;ratioP2;P2;SDS_P1;SDS_P2;PMS_P1;PMS_P2;Temp;Humidity;BMP_temperature;BMP_pressure;BME280_temperature;BME280_humidity;BME280_pressure;Samples;Min_cycle;Max_cycle;Signal;HPM_P1;HPM_P2
2022/07/01 00:01:31;;;;;;;1.65;0.40;;;23.80;63.30;;;;;;5072826;28;20076;-61
2022/07/01 00:03:56;;;;;;;1.52;0.50;;;23.90;63.40;;;;;;5073110;28;20051;-60
2022/07/01 00:06:22;;;;;;;2.63;0.50;;;23.80;63.40;;;;;;5073822;28;20044;-60
2022/07/01 00:08:47;;;;;;;1.40;0.60;;;23.80;64.00;;;;;;5071660;28;20045;-60
2022/07/01 00:11:14;;;;;;;2.60;0.57;;;23.80;63.50;;;;;;5073668;28;20040;-60
2022/07/01 00:13:39;;;;;;;1.00;0.40;;;23.80;63.50;;;;;;5072610;28;20044;-60
2022/07/01 00:16:05;;;;;;;1.17;0.50;;;23.80;63.50;;;;;;5071909;28;20041;-60
2022/07/01 00:18:30;;;;;;;3.20;0.60;;;23.80;63.60;;;;;;5073457;28;20044;-60
2022/07/01 00:20:56;;;;;;;3.35;0.40;;;23.80;63.60;;;;;;5071077;28;20051;-60
2022/07/01 00:23:22;;;;;;;1.58;0.73;;;23.80;63.60;;;;;;5072470;28;20102;-60
2022/07/01 00:25:47;;;;;;;1.48;0.60;;;23.80;63.70;;;;;;5104489;28;20055;-61
2022/07/01 00:28:13;;;;;;;3.67;0.98;;;23.80;63.70;;;;;;5072629;28;20079;-60
2022/07/01 00:30:38;;;;;;;1.70;0.50;;;23.80;63.70;;;;;;5073078;28;20044;-60
2022/07/01 00:33:04;;;;;;;1.65;0.40;;;23.70;63.70;;;;;;5072821;28;20052;-60
2022/07/01 00:35:30;;;;;;;1.55;0.60;;;23.70;63.70;;;;;;5072293;28;20039;-62
2022/07/01 00:37:56;;;;;;;1.30;0.30;;;23.70;63.70;;;;;;5072168;28;20523;-62
2022/07/01 00:40:23;;;;;;;3.83;0.95;;;23.70;63.80;;;;;;5067513;28;20049;-59
2022/07/01 00:42:48;;;;;;;2.00;0.43;;;23.70;63.80;;;;;;5052136;28;20106;-61
2022/07/01 00:45:14;;;;;;;2.67;0.40;;;23.70;63.80;;;;;;5052823;28;20049;-61
2022/07/01 00:47:41;;;;;;;1.55;0.50;;;23.70;63.80;;;;;;5059501;28;20036;-61
2022/07/01 00:50:07;;;;;;;2.22;0.73;;;23.70;63.90;;;;;;5072066;28;20044;-61
2022/07/01 00:52:33;;;;;;;1.80;0.47;;;23.70;63.80;;;;;;5072556;28;20047;-61
2022/07/01 00:55:01;;;;;;;2.78;0.65;;;23.70;63.90;;;;;;5072444;28;20559;-60
2022/07/01 00:57:32;;;;;;;3.35;0.82;;;23.70;63.90;;;;;;5070951;28;20044;-61
2022/07/01 00:59:58;;;;;;;1.35;0.38;;;23.70;64.00;;;;;;5071037;28;20075;-61
2022/07/01 01:02:24;;;;;;;5.47;0.70;;;23.70;64.00;;;;;;5072849;28;20052;-61
2022/07/01 01:04:49;;;;;;;1.60;0.52;;;23.70;64.00;;;;;;5071717;28;20040;-61
2022/07/01 01:07:15;;;;;;;4.15;0.82;;;23.70;64.00;;;;;;5072572;28;20412;-61
2022/07/01 01:09:40;;;;;;;1.95;0.50;;;23.70;64.00;;;;;;5071298;28;20041;-61
2022/07/01 01:12:06;;;;;;;3.80;0.88;;;23.70;64.00;;;;;;5072019;28;20049;-61
2022/07/01 01:14:48;;;;;;;3.38;0.90;;;23.70;64.00;;;;;;5071233;28;20070;-61
2022/07/01 01:17:14;;;;;;;3.13;0.70;;;23.70;64.10;;;;;;5071205;28;20404;-60
2022/07/01 01:19:43;;;;;;;2.17;0.70;;;23.70;64.10;;;;;;5071702;28;20484;-61
2022/07/01 01:22:09;;;;;;;3.00;0.43;;;23.70;64.10;;;;;;5072681;28;20483;-61
2022/07/01 01:24:36;;;;;;;2.13;0.60;;;23.70;64.10;;;;;;5071835;28;20048;-61
2022/07/01 01:27:03;;;;;;;2.25;0.63;;;23.70;64.20;;;;;;5072113;28;20072;-61
2022/07/01 01:29:28;;;;;;;1.33;0.60;;;23.60;64.10;;;;;;5071314;28;20052;-61
2022/07/01 01:31:54;;;;;;;2.35;0.65;;;23.70;64.20;;;;;;5070644;28;20036;-61
2022/07/01 01:34:20;;;;;;;2.22;0.60;;;23.60;64.20;;;;;;5070960;28;20041;-61
2022/07/01 01:36:45;;;;;;;2.38;0.60;;;23.60;64.20;;;;;;5072264;28;20127;-61
2022/07/01 01:39:17;;;;;;;1.42;0.47;;;23.70;64.20;;;;;;5071609;28;20048;-61
2022/07/01 01:41:43;;;;;;;2.50;0.60;;;23.70;64.30;;;;;;5072215;28;20044;-62
2022/07/01 01:44:09;;;;;;;3.38;0.75;;;23.70;64.30;;;;;;5072230;28;20064;-60
2022/07/01 01:46:34;;;;;;;2.55;0.60;;;23.70;64.30;;;;;;5071676;28;20072;-60
2022/07/01 01:49:00;;;;;;;1.48;0.50;;;23.70;64.30;;;;;;5071687;28;20083;-60
2022/07/01 01:51:26;;;;;;;2.72;0.60;;;23.70;64.30;;;;;;5072344;28;20485;-61
2022/07/01 01:53:52;;;;;;;1.38;0.40;;;23.60;64.30;;;;;;5071227;28;20053;-61
2022/07/01 01:56:17;;;;;;;2.20;0.63;;;23.60;64.30;;;;;;5071917;28;20033;-61
2022/07/01 01:58:44;;;;;;;2.13;0.60;;;23.60;64.30;;;;;;5071243;28;20047;-61
2022/07/01 02:01:12;;;;;;;1.23;0.50;;;23.60;64.30;;;;;;5071074;28;20364;-61
2022/07/01 02:03:39;;;;;;;1.83;0.52;;;23.70;64.40;;;;;;5072365;28;20040;-61
2022/07/01 02:06:05;;;;;;;2.22;0.60;;;23.60;64.40;;;;;;5071155;28;20222;-61
2022/07/01 02:08:31;;;;;;;2.40;0.70;;;23.60;64.40;;;;;;5072129;28;20121;-61
2022/07/01 02:10:57;;;;;;;2.15;0.50;;;23.60;64.40;;;;;;5070898;28;20098;-61
2022/07/01 02:13:22;;;;;;;1.98;0.50;;;23.60;64.40;;;;;;5071081;28;20048;-60
2022/07/01 02:15:49;;;;;;;1.38;0.40;;;23.60;64.50;;;;;;5071608;28;20040;-61
2022/07/01 02:18:15;;;;;;;1.80;0.43;;;23.60;64.50;;;;;;5072102;28;20052;-60
2022/07/01 02:20:41;;;;;;;1.75;0.50;;;23.60;64.50;;;;;;5070802;28;20032;-61
2022/07/01 02:23:07;;;;;;;1.08;0.50;;;23.60;64.60;;;;;;5071987;28;20039;-61
2022/07/01 02:25:32;;;;;;;0.90;0.40;;;23.60;64.60;;;;;;5071768;28;20146;-61
2022/07/01 02:27:58;;;;;;;1.55;0.65;;;23.60;64.60;;;;;;5070957;28;20067;-61
2022/07/01 02:30:24;;;;;;;1.40;0.50;;;23.60;64.60;;;;;;5071684;28;20128;-61
2022/07/01 02:32:50;;;;;;;1.00;0.40;;;23.60;64.60;;;;;;5072429;28;20148;-61
2022/07/01 02:35:15;;;;;;;1.42;0.52;;;23.60;64.60;;;;;;5073077;28;20123;-61
2022/07/01 02:37:41;;;;;;;2.70;0.40;;;23.60;64.60;;;;;;5074375;28;20123;-61
2022/07/01 02:40:07;;;;;;;1.95;0.50;;;23.50;64.60;;;;;;5075384;28;20496;-61
2022/07/01 02:42:35;;;;;;;2.75;0.68;;;23.50;64.60;;;;;;5074626;28;20485;-61
2022/07/01 02:45:04;;;;;;;1.67;0.60;;;23.50;64.60;;;;;;5074692;28;20059;-61
2022/07/01 02:47:34;;;;;;;1.30;0.60;;;23.50;64.70;;;;;;5075383;28;20117;-61
2022/07/01 02:50:00;;;;;;;1.45;0.60;;;23.50;64.70;;;;;;5073990;28;20041;-61
2022/07/01 02:52:26;;;;;;;1.95;0.60;;;23.50;64.70;;;;;;5073604;28;20115;-61
2022/07/01 02:54:52;;;;;;;1.35;0.50;;;23.50;64.70;;;;;;5074750;28;20451;-61
2022/07/01 02:57:17;;;;;;;2.03;0.50;;;23.50;64.70;;;;;;5074494;28;20536;-60
2022/07/01 02:59:43;;;;;;;1.23;0.40;;;23.50;64.70;;;;;;5074901;28;20045;-61
2022/07/01 03:02:09;;;;;;;1.55;0.55;;;23.50;64.70;;;;;;5073652;28;20093;-61
2022/07/01 03:04:34;;;;;;;2.15;0.68;;;23.50;64.70;;;;;;5074286;28;20066;-61
2022/07/01 03:07:00;;;;;;;1.55;0.60;;;23.50;64.80;;;;;;5073274;28;20127;-61
2022/07/01 03:09:26;;;;;;;1.50;0.43;;;23.40;64.70;;;;;;5073867;28;20036;-61
2022/07/01 03:11:51;;;;;;;2.60;0.70;;;23.50;64.80;;;;;;5074338;28;20041;-61
2022/07/01 03:14:17;;;;;;;1.30;0.50;;;23.50;64.70;;;;;;5074594;28;20055;-61
2022/07/01 03:16:42;;;;;;;1.08;0.50;;;23.50;64.80;;;;;;5073883;28;20058;-61
2022/07/01 03:19:09;;;;;;;1.65;0.60;;;23.40;64.70;;;;;;5074644;28;20573;-61
2022/07/01 03:21:34;;;;;;;3.03;0.60;;;23.50;64.70;;;;;;5074647;28;20114;-61
2022/07/01 03:24:00;;;;;;;1.25;0.40;;;23.50;64.70;;;;;;5073559;28;20122;-61
2022/07/01 03:26:25;;;;;;;1.70;0.70;;;23.50;64.80;;;;;;5074020;28;20067;-61
2022/07/01 03:28:52;;;;;;;1.35;0.52;;;23.40;64.70;;;;;;5073904;28;20174;-61
2022/07/01 03:31:18;;;;;;;1.35;0.60;;;23.40;64.70;;;;;;5073729;28;20119;-61
2022/07/01 03:33:43;;;;;;;1.50;0.60;;;23.40;64.80;;;;;;5073544;28;20044;-61
2022/07/01 03:36:09;;;;;;;1.10;0.40;;;23.40;64.80;;;;;;5074341;28;20048;-61
2022/07/01 03:38:34;;;;;;;1.55;0.60;;;23.40;64.80;;;;;;5073589;28;20040;-61
2022/07/01 03:41:00;;;;;;;2.38;0.63;;;23.40;64.80;;;;;;5073778;28;20044;-61
2022/07/01 03:43:26;;;;;;;1.52;0.80;;;23.40;64.80;;;;;;5074235;28;20124;-61
2022/07/01 03:45:51;;;;;;;1.35;0.50;;;23.40;64.80;;;;;;5069312;28;20048;-61
2022/07/01 03:48:17;;;;;;;1.17;0.60;;;23.40;64.90;;;;;;5070244;28;20128;-61
2022/07/01 03:50:42;;;;;;;2.22;0.60;;;23.40;64.90;;;;;;5073705;28;20055;-61
2022/07/01 03:55:52;;;;;;;1.35;0.50;;;23.40;64.90;;;;;;5073665;28;20048;-61
2022/07/01 03:58:17;;;;;;;1.65;0.60;;;23.40;64.90;;;;;;5073697;28;20045;-61
2022/07/01 04:00:43;;;;;;;1.30;0.50;;;23.40;64.90;;;;;;5067845;28;20033;-61
2022/07/01 04:03:08;;;;;;;1.52;0.60;;;23.40;64.90;;;;;;5069971;28;20044;-61
2022/07/01 04:05:35;;;;;;;1.70;0.60;;;23.40;64.90;;;;;;5072899;28;20079;-61
2022/07/01 04:08:02;;;;;;;0.60;0.50;;;23.30;64.80;;;;;;5072513;28;20087;-61
2022/07/01 04:10:33;;;;;;;0.60;0.40;;;23.30;64.90;;;;;;5072114;28;20049;-61
2022/07/01 04:13:02;;;;;;;1.08;0.55;;;23.30;64.90;;;;;;5071180;28;20118;-61
2022/07/01 04:15:27;;;;;;;2.63;0.75;;;23.30;64.90;;;;;;5073762;28;20033;-61
2022/07/01 04:17:53;;;;;;;1.13;0.50;;;23.30;64.90;;;;;;5073082;28;20048;-61
2022/07/01 04:20:19;;;;;;;1.83;0.70;;;23.30;64.90;;;;;;5071347;28;20041;-61
2022/07/01 04:22:44;;;;;;;0.95;0.50;;;23.30;64.90;;;;;;5073182;28;20134;-61
2022/07/01 04:25:10;;;;;;;1.75;0.50;;;23.30;64.90;;;;;;5073154;28;20080;-61
2022/07/01 04:27:35;;;;;;;1.60;0.60;;;23.30;65.00;;;;;;5071311;28;20091;-61
2022/07/01 04:30:04;;;;;;;1.27;0.60;;;23.30;64.90;;;;;;5073132;28;20162;-61
2022/07/01 04:32:30;;;;;;;1.38;0.60;;;23.30;64.90;;;;;;5072759;28;20048;-61
2022/07/01 04:34:56;;;;;;;1.20;0.40;;;23.30;64.90;;;;;;5072067;28;20535;-61
2022/07/01 04:37:21;;;;;;;2.30;0.63;;;23.30;65.00;;;;;;5073035;28;20044;-61
2022/07/01 04:39:47;;;;;;;1.13;0.60;;;23.30;64.90;;;;;;5072531;28;20051;-61
2022/07/01 04:42:14;;;;;;;1.70;0.75;;;23.30;64.90;;;;;;5072436;28;20040;-61
2022/07/01 04:44:40;;;;;;;1.30;0.60;;;23.30;64.90;;;;;;5072941;28;20141;-61
2022/07/01 04:47:05;;;;;;;1.00;0.50;;;23.30;65.00;;;;;;5073019;28;20072;-61
2022/07/01 04:49:31;;;;;;;1.15;0.70;;;23.30;65.00;;;;;;5072485;28;20040;-61
2022/07/01 04:51:57;;;;;;;1.38;0.80;;;23.20;64.90;;;;;;5071366;28;20403;-61
2022/07/01 04:54:23;;;;;;;1.58;0.60;;;23.20;64.90;;;;;;5072106;28;20468;-61
2022/07/01 04:56:49;;;;;;;1.08;0.80;;;23.30;64.90;;;;;;5071009;28;20151;-61
2022/07/01 04:59:15;;;;;;;2.50;0.57;;;23.20;64.90;;;;;;5072745;28;20036;-60
2022/07/01 05:01:44;;;;;;;1.15;0.50;;;23.20;64.90;;;;;;5072562;28;20358;-60
2022/07/01 05:04:10;;;;;;;1.10;0.57;;;23.20;64.90;;;;;;5071667;28;20162;-60
2022/07/01 05:06:36;;;;;;;1.35;0.50;;;23.20;64.90;;;;;;5072840;28;20098;-59
2022/07/01 05:09:02;;;;;;;1.20;0.70;;;23.20;64.90;;;;;;5071348;28;20049;-60
2022/07/01 05:11:28;;;;;;;1.05;0.60;;;23.20;64.90;;;;;;5071277;28;20041;-60
2022/07/01 05:13:53;;;;;;;1.45;0.70;;;23.20;64.90;;;;;;5072043;28;20059;-60
2022/07/01 05:16:19;;;;;;;1.80;0.65;;;23.20;64.90;;;;;;5071804;28;20468;-60
2022/07/01 05:24:13;;;;;;;1.00;0.60;;;23.20;65.00;;;;;;5071455;28;20048;-61
2022/07/01 05:26:38;;;;;;;2.08;0.85;;;23.20;65.00;;;;;;5071710;28;20059;-61
2022/07/01 05:29:04;;;;;;;1.67;0.60;;;23.20;65.00;;;;;;5072128;28;20037;-60
2022/07/01 05:31:30;;;;;;;1.75;0.88;;;23.20;65.00;;;;;;5071755;28;20041;-61
2022/07/01 05:33:55;;;;;;;1.50;0.70;;;23.20;65.00;;;;;;5071901;28;20076;-61
2022/07/01 05:36:21;;;;;;;1.33;0.55;;;23.20;65.00;;;;;;5072434;28;20054;-61
2022/07/01 05:38:46;;;;;;;1.52;0.93;;;23.20;65.00;;;;;;5069863;28;20081;-61
2022/07/01 05:41:12;;;;;;;1.92;0.75;;;23.20;65.00;;;;;;5070891;28;20048;-61
2022/07/01 05:43:38;;;;;;;1.38;0.77;;;23.20;65.00;;;;;;5052277;28;20120;-61
2022/07/01 05:46:03;;;;;;;1.38;0.70;;;23.20;65.00;;;;;;5051063;28;20488;-61
2022/07/01 05:48:29;;;;;;;2.35;0.80;;;23.20;65.00;;;;;;5051236;28;20467;-63
2022/07/01 05:50:54;;;;;;;1.90;0.85;;;23.20;65.10;;;;;;5052146;28;20053;-61
2022/07/01 05:53:20;;;;;;;1.40;0.80;;;23.20;65.10;;;;;;5051535;28;20049;-61
2022/07/01 05:55:45;;;;;;;2.33;1.00;;;23.20;65.10;;;;;;5051363;28;20040;-61
2022/07/01 05:58:11;;;;;;;2.33;0.90;;;23.20;65.10;;;;;;5051419;28;20048;-61
2022/07/01 06:00:38;;;;;;;1.80;1.00;;;23.20;65.20;;;;;;5052450;28;20477;-61
2022/07/01 06:03:03;;;;;;;1.67;1.08;;;23.20;65.10;;;;;;5051608;28;20480;-61
2022/07/01 06:05:30;;;;;;;5.72;1.70;;;23.20;65.00;;;;;;5051649;28;20106;-61
2022/07/01 06:07:56;;;;;;;3.95;1.80;;;23.20;65.20;;;;;;5054503;28;20049;-61
2022/07/01 06:10:22;;;;;;;2.72;1.75;;;23.20;65.20;;;;;;5056060;28;20066;-61
2022/07/01 06:12:47;;;;;;;2.35;1.65;;;23.20;65.20;;;;;;5054779;28;20397;-61
2022/07/01 06:15:13;;;;;;;2.50;1.60;;;23.30;65.40;;;;;;5055792;28;20119;-61
2022/07/01 06:17:39;;;;;;;2.28;1.48;;;23.30;65.40;;;;;;5055604;28;20041;-63
2022/07/01 06:20:06;;;;;;;3.55;1.52;;;23.30;65.40;;;;;;5054942;28;20538;-61
2022/07/01 06:22:32;;;;;;;2.20;1.42;;;23.30;65.40;;;;;;5055412;28;20045;-61
2022/07/01 06:24:58;;;;;;;2.95;1.30;;;23.30;65.40;;;;;;5055111;28;20503;-61
2022/07/01 06:27:24;;;;;;;2.47;1.58;;;23.30;65.30;;;;;;5055043;28;20045;-61
2022/07/01 06:29:50;;;;;;;4.78;1.75;;;23.30;65.40;;;;;;5055311;28;20396;-61
2022/07/01 06:32:16;;;;;;;3.22;1.60;;;23.30;65.40;;;;;;5055268;28;20048;-61
2022/07/01 06:34:41;;;;;;;3.38;1.60;;;23.30;65.50;;;;;;5074117;28;20032;-61
2022/07/01 06:37:07;;;;;;;2.80;1.60;;;23.30;65.50;;;;;;5075124;28;20472;-60
2022/07/01 06:39:33;;;;;;;2.80;1.95;;;23.40;65.60;;;;;;5075053;28;20058;-62
2022/07/01 06:41:58;;;;;;;2.35;1.52;;;23.40;65.70;;;;;;5073967;28;20095;-60
2022/07/01 06:44:24;;;;;;;3.10;1.67;;;23.40;65.60;;;;;;5075180;28;20048;-60
2022/07/01 06:46:49;;;;;;;3.20;1.63;;;23.40;65.60;;;;;;5074884;28;20040;-60
2022/07/01 06:49:15;;;;;;;4.63;2.08;;;23.40;65.50;;;;;;5074550;28;20094;-60
2022/07/01 06:51:41;;;;;;;2.70;1.95;;;23.40;65.50;;;;;;5075007;28;20045;-61
2022/07/01 06:54:06;;;;;;;3.05;1.70;;;23.40;65.50;;;;;;5073626;28;20079;-60
2022/07/01 06:56:32;;;;;;;4.47;2.13;;;23.40;65.50;;;;;;5074472;28;20080;-60
2022/07/01 06:58:57;;;;;;;3.47;2.10;;;23.40;65.60;;;;;;5074655;28;20051;-60
2022/07/01 07:01:24;;;;;;;2.90;1.77;;;23.40;65.70;;;;;;5074767;28;20068;-60
2022/07/01 07:03:49;;;;;;;3.70;2.00;;;23.40;65.70;;;;;;5073661;28;20041;-61
2022/07/01 07:06:15;;;;;;;3.28;1.83;;;23.40;65.80;;;;;;5074981;28;20044;-59
2022/07/01 07:08:40;;;;;;;4.13;1.92;;;23.40;65.70;;;;;;5073789;28;20171;-60
2022/07/01 07:11:08;;;;;;;3.63;2.03;;;23.40;65.70;;;;;;5074700;28;20101;-61
2022/07/01 07:13:34;;;;;;;3.67;2.03;;;23.40;65.70;;;;;;5074727;28;20115;-60
2022/07/01 07:16:00;;;;;;;6.93;2.40;;;23.40;65.70;;;;;;5073720;28;20055;-61
2022/07/01 07:18:25;;;;;;;4.50;2.67;;;23.40;65.70;;;;;;5073516;28;20048;-62
2022/07/01 07:20:51;;;;;;;4.05;2.22;;;23.40;65.70;;;;;;5074131;28;20092;-61
2022/07/01 07:23:16;;;;;;;4.55;2.33;;;23.40;65.80;;;;;;5072399;28;20523;-60
2022/07/01 07:25:42;;;;;;;3.28;2.38;;;23.40;65.80;;;;;;5073232;28;20053;-59
2022/07/01 07:28:08;;;;;;;3.85;2.38;;;23.40;65.90;;;;;;5074251;28;20050;-59
2022/07/01 07:30:33;;;;;;;3.45;2.70;;;23.40;66.00;;;;;;5073786;28;20032;-60
2022/07/01 07:32:59;;;;;;;4.20;2.40;;;23.40;66.00;;;;;;5074046;28;20040;-59
2022/07/01 07:35:24;;;;;;;6.47;2.10;;;23.40;66.00;;;;;;5074607;28;20036;-60
2022/07/01 07:37:50;;;;;;;4.25;2.60;;;23.40;66.00;;;;;;5073304;28;20094;-59
2022/07/01 07:40:18;;;;;;;4.90;2.75;;;23.50;66.20;;;;;;5074356;28;20048;-59
2022/07/01 07:42:45;;;;;;;4.47;2.80;;;23.40;66.00;;;;;;5073703;28;20045;-59
2022/07/01 07:45:11;;;;;;;6.05;2.47;;;23.40;65.90;;;;;;5073182;28;20098;-60
2022/07/01 07:47:37;;;;;;;4.88;2.72;;;23.40;65.80;;;;;;5074274;28;20052;-60
2022/07/01 07:50:03;;;;;;;5.82;2.60;;;23.50;65.80;;;;;;5073972;28;20538;-60
2022/07/01 07:52:28;;;;;;;5.20;2.72;;;23.40;65.70;;;;;;5073353;28;20455;-59
2022/07/01 07:54:54;;;;;;;3.67;2.80;;;23.40;65.70;;;;;;5072221;28;20041;-59
2022/07/01 07:57:20;;;;;;;4.28;2.97;;;23.40;65.70;;;;;;5074015;28;20036;-59
2022/07/01 07:59:45;;;;;;;4.00;2.58;;;23.40;65.70;;;;;;5072413;28;20045;-59
2022/07/01 08:02:11;;;;;;;7.25;3.50;;;23.40;66.30;;;;;;5073957;28;20539;-60
2022/07/01 08:04:36;;;;;;;5.53;3.05;;;23.40;65.70;;;;;;5073667;28;20079;-60
2022/07/01 08:07:02;;;;;;;4.63;3.15;;;23.50;65.70;;;;;;5072631;28;20089;-60
2022/07/01 08:09:28;;;;;;;4.00;2.97;;;23.40;65.60;;;;;;5073741;28;20037;-60
2022/07/01 08:11:53;;;;;;;4.47;2.95;;;23.50;65.60;;;;;;5072267;28;20093;-60
2022/07/01 08:14:19;;;;;;;4.72;2.92;;;23.50;65.60;;;;;;5073167;28;20040;-60
2022/07/01 08:16:44;;;;;;;4.05;2.80;;;23.50;65.60;;;;;;5073401;28;20127;-60
2022/07/01 08:19:10;;;;;;;4.93;3.20;;;23.50;65.60;;;;;;5105209;28;20040;-60
2022/07/01 08:21:35;;;;;;;3.67;3.05;;;23.50;65.60;;;;;;5073610;28;20190;-61
2022/07/01 08:24:01;;;;;;;3.55;2.90;;;23.50;65.50;;;;;;5073077;28;20066;-60
2022/07/01 08:26:26;;;;;;;5.65;3.10;;;23.50;65.50;;;;;;5072300;28;20064;-60
2022/07/01 08:28:52;;;;;;;6.50;3.20;;;23.50;65.50;;;;;;5071908;28;20036;-59
2022/07/01 08:31:18;;;;;;;4.47;3.60;;;23.50;65.50;;;;;;5067192;28;20111;-59
2022/07/01 08:33:43;;;;;;;5.43;3.88;;;23.50;65.50;;;;;;5071615;28;20045;-59
2022/07/01 08:36:09;;;;;;;6.00;4.00;;;23.50;65.50;;;;;;5072772;28;20063;-59
2022/07/01 08:38:35;;;;;;;5.05;3.80;;;23.50;65.50;;;;;;5072825;28;20143;-60
2022/07/01 08:41:01;;;;;;;5.00;3.47;;;23.50;65.50;;;;;;5071583;28;20044;-59
2022/07/01 08:43:27;;;;;;;4.93;3.60;;;23.50;65.60;;;;;;5071756;28;20048;-60
2022/07/01 08:45:53;;;;;;;5.28;3.83;;;23.50;65.60;;;;;;5071930;28;20102;-61
2022/07/01 08:48:18;;;;;;;6.18;3.60;;;23.60;65.60;;;;;;5072293;28;20126;-60
2022/07/01 08:50:44;;;;;;;4.25;3.40;;;23.60;65.60;;;;;;5071868;28;20055;-59
2022/07/01 08:53:10;;;;;;;4.85;3.85;;;23.60;65.60;;;;;;5072529;28;20051;-60
2022/07/01 08:56:40;;;;;;;5.65;3.63;;;23.60;65.60;;;;;;5071647;28;20052;-60
2022/07/01 08:58:22;;;;;;;5.72;3.83;;;23.60;65.60;;;;;;5072508;28;20048;-60
2022/07/01 09:00:48;;;;;;;5.43;3.80;;;23.60;65.50;;;;;;5072212;28;20045;-60
2022/07/01 09:03:13;;;;;;;4.88;3.40;;;23.60;65.50;;;;;;5071605;28;20090;-60
2022/07/01 09:05:39;;;;;;;5.85;3.90;;;23.70;65.40;;;;;;5072761;28;20070;-60
2022/07/01 09:08:05;;;;;;;7.22;3.95;;;23.70;65.20;;;;;;5070223;28;20099;-62
2022/07/01 09:10:34;;;;;;;8.15;3.70;;;23.60;65.00;;;;;;5071629;28;20085;-60
2022/07/01 09:13:11;;;;;;;6.85;4.15;;;23.70;64.90;;;;;;5072251;28;20414;-60
2022/07/01 09:15:37;;;;;;;4.97;3.70;;;23.60;64.70;;;;;;5071883;28;20045;-60
2022/07/01 09:18:05;;;;;;;5.88;4.07;;;23.60;64.70;;;;;;5072389;28;20036;-60
2022/07/01 09:20:35;;;;;;;6.45;3.83;;;23.60;64.70;;;;;;5058575;28;20049;-60
2022/07/01 09:23:01;;;;;;;5.70;3.83;;;23.70;64.70;;;;;;5051333;28;20052;-60
2022/07/01 09:25:37;;;;;;;5.03;3.80;;;23.70;64.70;;;;;;5050962;28;20088;-60
2022/07/01 09:28:13;;;;;;;5.40;4.07;;;23.70;64.70;;;;;;5052180;28;20090;-60
2022/07/01 09:30:39;;;;;;;6.40;3.50;;;23.70;64.60;;;;;;5051587;28;20508;-60
2022/07/01 09:33:12;;;;;;;5.32;3.90;;;23.70;64.60;;;;;;5052204;28;20072;-60
2022/07/01 09:35:37;;;;;;;5.32;3.60;;;23.70;64.40;;;;;;5052383;28;20041;-60
2022/07/01 09:38:07;;;;;;;6.20;3.80;;;23.70;64.30;;;;;;5051379;28;20049;-60
2022/07/01 09:40:48;;;;;;;5.35;4.10;;;23.70;64.20;;;;;;5052971;28;20086;-60
2022/07/01 09:43:18;;;;;;;6.05;3.92;;;23.70;64.10;;;;;;5054864;28;20076;-60
2022/07/01 09:45:59;;;;;;;5.70;3.80;;;23.70;64.00;;;;;;5055954;28;20049;-59
2022/07/01 09:48:42;;;;;;;6.88;3.80;;;23.70;63.80;;;;;;5056626;28;20045;-60
2022/07/01 09:51:08;;;;;;;5.60;3.70;;;23.70;63.90;;;;;;5054013;28;20155;-61
2022/07/01 09:53:34;;;;;;;6.40;4.03;;;23.70;63.80;;;;;;5054466;28;20045;-60
2022/07/01 09:56:00;;;;;;;5.05;3.75;;;23.70;63.90;;;;;;5055342;28;20041;-60
2022/07/01 09:58:26;;;;;;;6.25;3.97;;;23.70;63.80;;;;;;5068657;28;20055;-61
2022/07/01 10:00:54;;;;;;;6.45;3.83;;;23.70;63.70;;;;;;5058839;28;20469;-62
2022/07/01 10:03:20;;;;;;;4.88;3.72;;;23.70;63.80;;;;;;5066075;28;20037;-61
2022/07/01 10:06:27;;;;;;;6.18;3.83;;;23.70;63.70;;;;;;5086797;28;20045;-60
2022/07/01 10:09:18;;;;;;;6.35;3.75;;;23.70;63.60;;;;;;5087238;28;20070;-61
2022/07/01 10:12:03;;;;;;;4.90;3.30;;;23.70;63.60;;;;;;5051708;28;20153;-61
2022/07/01 10:14:29;;;;;;;5.88;3.58;;;23.70;63.60;;;;;;5054142;28;20484;-61
2022/07/01 10:16:55;;;;;;;8.10;3.80;;;23.60;63.50;;;;;;5070466;28;20049;-62
2022/07/01 10:19:20;;;;;;;4.55;3.30;;;23.70;63.50;;;;;;5054451;28;20102;-61
2022/07/01 10:21:46;;;;;;;5.03;3.67;;;23.70;63.30;;;;;;5055500;28;20107;-62
2022/07/01 10:24:12;;;;;;;5.32;3.25;;;23.70;63.20;;;;;;5055696;28;20102;-61
2022/07/01 10:26:38;;;;;;;6.72;3.40;;;23.70;63.10;;;;;;5054765;28;20415;-61
2022/07/01 10:29:03;;;;;;;5.00;3.35;;;23.70;62.90;;;;;;5055077;28;20037;-62
2022/07/01 10:31:37;;;;;;;5.10;2.88;;;23.70;62.90;;;;;;5055445;28;20041;-62
2022/07/01 10:34:02;;;;;;;4.50;3.35;;;23.70;62.80;;;;;;5054615;28;20123;-61
2022/07/01 10:36:29;;;;;;;5.35;3.60;;;23.70;62.90;;;;;;5054170;28;20461;-61
2022/07/01 10:39:01;;;;;;;5.15;3.10;;;23.70;62.80;;;;;;5054424;28;20095;-61
2022/07/01 10:41:27;;;;;;;9.68;5.15;;;23.80;62.80;;;;;;5054232;28;20091;-61
2022/07/01 10:43:56;;;;;;;5.22;3.20;;;23.80;62.70;;;;;;5054492;28;20044;-60
2022/07/01 10:46:37;;;;;;;7.00;3.90;;;23.80;62.70;;;;;;5054885;28;20049;-61
2022/07/01 10:49:02;;;;;;;7.65;4.18;;;23.80;62.60;;;;;;5059937;28;20520;-60
2022/07/01 10:51:53;;;;;;;7.43;4.18;;;23.80;62.60;;;;;;5062686;28;20045;-60
2022/07/01 10:54:36;;;;;;;6.10;3.70;;;23.80;62.50;;;;;;5053245;28;20539;-61
2022/07/01 10:57:18;;;;;;;7.50;4.00;;;23.80;62.80;;;;;;5054250;28;20076;-61
2022/07/01 10:59:48;;;;;;;8.25;4.25;;;23.80;62.80;;;;;;5062634;28;20505;-60
2022/07/01 11:02:19;;;;;;;7.63;4.10;;;23.90;62.80;;;;;;5067733;28;20053;-60
2022/07/01 11:04:45;;;;;;;8.80;3.90;;;23.90;62.80;;;;;;5053608;28;20512;-59
2022/07/01 11:07:11;;;;;;;8.20;4.10;;;23.90;62.90;;;;;;5058780;28;20048;-60
2022/07/01 11:09:36;;;;;;;7.13;3.30;;;23.90;62.90;;;;;;5054108;28;20045;-60
2022/07/01 11:12:02;;;;;;;7.28;4.30;;;24.00;62.90;;;;;;5054105;28;20071;-60
2022/07/01 11:14:28;;;;;;;8.13;3.95;;;24.00;62.90;;;;;;5054346;28;20045;-60
2022/07/01 11:16:54;;;;;;;8.32;3.97;;;24.00;62.90;;;;;;5053107;28;20128;-60
2022/07/01 11:19:20;;;;;;;6.20;3.50;;;24.00;62.80;;;;;;5054170;28;20045;-60
2022/07/01 11:21:49;;;;;;;7.72;4.35;;;24.00;62.70;;;;;;5053169;28;20047;-60
2022/07/01 11:24:17;;;;;;;7.18;3.72;;;24.00;62.70;;;;;;5067979;28;20041;-61
2022/07/01 11:26:42;;;;;;;7.25;3.58;;;24.00;62.70;;;;;;5053659;28;20045;-61
2022/07/01 11:29:11;;;;;;;7.25;3.35;;;24.00;62.70;;;;;;5085515;28;20083;-60
2022/07/01 11:31:37;;;;;;;6.28;3.60;;;24.00;62.70;;;;;;5053818;28;20052;-61
2022/07/01 11:34:03;;;;;;;6.50;3.33;;;24.10;62.80;;;;;;5053716;28;20049;-61
2022/07/01 11:39:22;;;;;;;6.97;3.45;;;24.10;62.70;;;;;;5053560;28;20485;-61
2022/07/01 11:41:54;;;;;;;7.65;3.47;;;24.10;62.80;;;;;;5053475;28;20484;-60
2022/07/01 11:44:37;;;;;;;8.18;3.83;;;24.10;62.80;;;;;;5052990;28;20091;-60
2022/07/01 11:47:07;;;;;;;6.28;3.40;;;24.10;62.70;;;;;;5053451;28;20045;-60
2022/07/01 11:49:33;;;;;;;7.60;3.30;;;24.20;62.70;;;;;;5053351;28;20564;-60
2022/07/01 11:52:00;;;;;;;6.10;3.35;;;24.20;62.70;;;;;;5052243;28;20091;-60
2022/07/01 11:54:26;;;;;;;6.67;3.20;;;24.20;62.70;;;;;;5053581;28;20090;-60
2022/07/01 11:56:52;;;;;;;5.07;2.83;;;24.20;62.60;;;;;;5052412;28;20037;-60
2022/07/01 11:59:18;;;;;;;7.03;3.15;;;24.30;62.70;;;;;;5068446;28;20362;-60
2022/07/01 12:01:54;;;;;;;7.32;3.40;;;24.20;62.60;;;;;;5052629;28;20044;-61
2022/07/01 12:04:20;;;;;;;6.85;3.20;;;24.30;63.00;;;;;;5081890;28;20045;-61
2022/07/01 12:06:46;;;;;;;5.60;2.88;;;24.30;62.60;;;;;;5052539;28;20041;-65
2022/07/01 12:09:15;;;;;;;6.22;2.80;;;24.30;62.50;;;;;;5095632;28;20044;-60
2022/07/01 12:11:47;;;;;;;5.88;2.83;;;24.30;62.30;;;;;;5083579;28;20056;-60
2022/07/01 12:14:26;;;;;;;4.90;3.00;;;24.30;62.10;;;;;;5052874;28;20397;-60
2022/07/01 12:16:53;;;;;;;5.30;3.13;;;24.30;62.10;;;;;;5085037;28;20045;-60
2022/07/01 12:19:19;;;;;;;5.60;2.78;;;24.30;62.00;;;;;;5051832;28;20049;-62
2022/07/01 12:21:53;;;;;;;4.55;2.85;;;24.30;62.00;;;;;;5067229;28;20041;-61
2022/07/01 12:24:21;;;;;;;6.15;2.20;;;24.30;61.70;;;;;;5054841;28;20063;-61
2022/07/01 12:26:49;;;;;;;5.50;2.30;;;24.30;61.30;;;;;;5066118;28;20060;-61
2022/07/01 12:29:19;;;;;;;4.93;2.55;;;24.30;60.80;;;;;;5072714;28;20484;-61
2022/07/01 12:31:54;;;;;;;5.93;2.42;;;24.20;60.40;;;;;;5072466;28;20040;-61
2022/07/01 12:34:20;;;;;;;4.75;2.00;;;24.20;59.80;;;;;;5072311;28;20048;-61
2022/07/01 12:36:49;;;;;;;5.97;2.25;;;24.20;59.80;;;;;;5072215;28;20044;-61
2022/07/01 12:39:15;;;;;;;5.45;2.40;;;24.20;59.40;;;;;;5071857;28;20419;-61
2022/07/01 12:41:48;;;;;;;7.55;2.30;;;24.10;59.10;;;;;;5072683;28;20543;-62
2022/07/01 12:44:21;;;;;;;6.20;2.00;;;24.10;58.80;;;;;;5071001;28;20062;-61
2022/07/01 12:46:46;;;;;;;6.50;1.83;;;24.00;58.30;;;;;;5070402;28;20044;-61
2022/07/01 12:49:23;;;;;;;3.85;1.60;;;24.00;58.10;;;;;;5071468;28;20032;-62
2022/07/01 12:51:49;;;;;;;7.03;1.83;;;24.00;57.70;;;;;;5070867;28;20044;-60
2022/07/01 12:54:33;;;;;;;4.53;1.30;;;24.00;57.70;;;;;;5071574;28;20171;-61
2022/07/01 12:56:59;;;;;;;5.40;1.27;;;24.00;56.90;;;;;;5072270;28;20782;-61
2022/07/01 12:59:25;;;;;;;3.17;1.00;;;24.00;56.80;;;;;;5072503;28;20051;-61